Time;durP1;ratioP1;P1;durP2;ratioP2;P2;SDS_P1;SDS_P2;PMS_P1;PMS_P2;Temp;Humidity;BMP_temperature;BMP_pressure;BME280_temperature;BME280_humidity;BME280_pressure;Samples;Min_cycle;Max_cycle;Signal;HPM_P1;HPM_P2
2023/06/12 00:02:25;;;;;;;11.25;7.22;;;;;;;19.49;49.87;101345.94;5093651;28;20487;-47
2023/06/12 00:04:54;;;;;;;13.80;7.10;;;;;;;19.56;49.72;101340.72;5093593;28;20028;-46
2023/06/12 00:07:21;;;;;;;10.88;7.20;;;;;;;19.45;50.61;101344.19;5093616;28;20074;-47
2023/06/12 00:09:47;;;;;;;10.65;7.55;;;;;;;19.54;49.32;101341.59;5093509;28;20034;-47
2023/06/12 00:12:13;;;;;;;9.77;7.22;;;;;;;19.51;49.50;101344.19;5094140;28;20103;-48
2023/06/12 00:14:39;;;;;;;10.30;7.40;;;;;;;19.42;50.37;101342.47;5093751;28;20062;-47
2023/06/12 00:17:04;;;;;;;10.20;7.15;;;;;;;19.36;50.65;101338.06;5093193;28;20338;-48
2023/06/12 00:19:30;;;;;;;12.40;7.60;;;;;;;19.36;51.90;101345.91;5093545;28;20035;-46
2023/06/12 00:21:56;;;;;;;10.30;6.93;;;;;;;19.23;50.83;101341.56;5093539;28;20036;-47
2023/06/12 00:24:21;;;;;;;12.38;7.57;;;;;;;19.31;50.39;101344.19;5092518;28;20043;-46
2023/06/12 00:26:47;;;;;;;12.88;7.05;;;;;;;19.29;52.17;101344.19;5093799;28;20111;-48
2023/06/12 00:29:12;;;;;;;11.68;7.38;;;;;;;19.12;50.83;101345.88;5093851;28;20020;-49
2023/06/12 00:31:37;;;;;;;11.60;7.78;;;;;;;19.19;50.99;101342.44;5092563;28;20476;-46
2023/06/12 00:34:02;;;;;;;14.13;7.50;;;;;;;19.04;51.49;101351.09;5093468;28;20032;-46
2023/06/12 00:36:28;;;;;;;12.88;7.82;;;;;;;19.15;50.63;101348.53;5093146;28;20039;-46
2023/06/12 00:38:53;;;;;;;13.07;7.50;;;;;;;19.07;51.60;101351.97;5092890;28;20103;-47
2023/06/12 00:41:19;;;;;;;11.77;7.57;;;;;;;19.14;51.26;101352.00;5093221;28;20035;-47
2023/06/12 00:43:44;;;;;;;11.45;8.10;;;;;;;19.17;50.61;101346.75;5093397;28;20465;-46
2023/06/12 00:46:10;;;;;;;11.45;7.72;;;;;;;19.02;51.28;101343.25;5092562;28;20035;-47
2023/06/12 00:48:38;;;;;;;15.73;7.68;;;;;;;19.02;52.15;101351.09;5093095;28;20028;-48
2023/06/12 00:51:03;;;;;;;10.07;7.55;;;;;;;19.08;50.73;101342.38;5092726;28;20375;-44
2023/06/12 00:53:28;;;;;;;10.05;7.57;;;;;;;18.84;53.03;101336.22;5092321;28;20028;-48
2023/06/12 00:55:54;;;;;;;11.73;7.43;;;;;;;18.82;53.19;101342.28;5093385;28;20035;-48
2023/06/12 00:58:20;;;;;;;13.13;7.40;;;;;;;18.65;53.70;101342.25;5092748;28;20103;-47
2023/06/12 01:00:48;;;;;;;10.90;7.63;;;;;;;18.51;54.74;101339.56;5092534;28;20046;-47
2023/06/12 01:03:13;;;;;;;12.13;7.72;;;;;;;18.45;55.90;101350.84;5093006;28;20430;-45
2023/06/12 01:05:42;;;;;;;20.38;8.50;;;;;;;18.38;55.26;101349.94;5092578;28;20471;-45
2023/06/12 01:08:10;;;;;;;14.57;8.30;;;;;;;18.32;55.18;101343.81;5092796;28;20024;-46
2023/06/12 01:11:02;;;;;;;10.90;8.00;;;;;;;18.23;55.39;101347.22;5092637;28;20452;-45
2023/06/12 01:13:28;;;;;;;11.23;7.97;;;;;;;18.20;56.25;101340.25;5092023;28;20035;-45
2023/06/12 01:15:53;;;;;;;11.00;8.43;;;;;;;17.99;58.80;101343.63;5092879;28;20024;-47
2023/06/12 01:18:21;;;;;;;12.05;8.38;;;;;;;17.89;58.77;101344.38;5092896;28;20031;-47
2023/06/12 01:20:47;;;;;;;18.55;8.55;;;;;;;17.82;58.22;101342.56;5092168;28;20067;-46
2023/06/12 01:23:43;;;;;;;12.70;8.80;;;;;;;17.84;58.13;101349.53;5092932;28;20464;-45
2023/06/12 01:26:35;;;;;;;12.80;8.87;;;;;;;17.82;58.33;101345.19;5092773;28;20035;-43
2023/06/12 01:29:22;;;;;;;13.13;8.23;;;;;;;17.61;60.41;101354.56;5092510;28;20376;-47
2023/06/12 01:31:56;;;;;;;13.40;8.20;;;;;;;17.63;60.00;101352.00;5093050;28;20081;-44
2023/06/12 01:34:29;;;;;;;11.82;9.55;;;;;;;17.56;60.03;101344.13;5091775;28;20824;-47
2023/06/12 01:37:05;;;;;;;11.75;9.15;;;;;;;17.44;60.73;101352.72;5092748;28;20119;-47
2023/06/12 01:39:38;;;;;;;13.23;9.60;;;;;;;17.45;60.22;101353.56;5092554;28;20073;-48
2023/06/12 01:42:07;;;;;;;11.93;9.60;;;;;;;17.39;61.65;101349.19;5092140;28;20032;-44
2023/06/12 01:44:33;;;;;;;11.82;9.50;;;;;;;17.25;61.70;101350.78;5092367;28;20047;-46
2023/06/12 01:46:58;;;;;;;11.90;9.50;;;;;;;17.22;62.19;101350.75;5092790;28;20024;-45
2023/06/12 01:49:23;;;;;;;14.52;10.27;;;;;;;17.16;61.63;101351.56;5091482;28;20036;-47
2023/06/12 01:51:48;;;;;;;13.43;10.13;;;;;;;16.96;62.92;101353.94;5092825;28;20034;-46
2023/06/12 01:54:15;;;;;;;11.88;9.60;;;;;;;16.93;62.31;101353.91;5092422;28;20039;-48
2023/06/12 01:56:44;;;;;;;12.52;9.75;;;;;;;16.83;63.49;101349.44;5092167;28;20069;-47
2023/06/12 01:59:11;;;;;;;14.50;10.07;;;;;;;16.90;62.66;101352.16;5092618;28;20016;-45
2023/06/12 02:01:36;;;;;;;15.10;10.55;;;;;;;16.76;63.52;101357.16;5092308;28;20090;-46
2023/06/12 02:04:02;;;;;;;14.25;9.68;;;;;;;16.63;64.40;101350.06;5095803;28;20039;-47
2023/06/12 02:06:28;;;;;;;12.23;10.00;;;;;;;16.64;64.10;101357.00;5096238;28;20024;-47
2023/06/12 02:08:53;;;;;;;14.05;10.52;;;;;;;16.68;64.05;101353.59;5096170;28;20441;-47
2023/06/12 02:11:19;;;;;;;14.70;10.18;;;;;;;16.66;64.53;101354.44;5095518;28;20032;-47
2023/06/12 02:13:45;;;;;;;13.52;10.75;;;;;;;16.62;65.29;101353.50;5096055;28;20046;-43
2023/06/12 02:16:10;;;;;;;12.30;9.85;;;;;;;16.69;65.75;101350.13;5095963;28;20138;-44
2023/06/12 02:18:36;;;;;;;13.48;9.45;;;;;;;16.56;66.16;101353.44;5095255;28;20111;-43
2023/06/12 02:21:01;;;;;;;13.77;9.82;;;;;;;16.48;66.00;101352.47;5096311;28;20051;-47
2023/06/12 02:23:27;;;;;;;11.75;9.20;;;;;;;16.40;66.86;101349.75;5095238;28;20016;-46
2023/06/12 02:25:52;;;;;;;12.20;9.80;;;;;;;16.40;66.77;101353.22;5096127;28;20054;-45
2023/06/12 02:28:17;;;;;;;15.65;11.30;;;;;;;16.32;66.92;101347.06;5095890;28;20040;-47
2023/06/12 02:30:43;;;;;;;14.70;10.88;;;;;;;16.29;66.24;101345.28;5095109;28;20356;-48
2023/06/12 02:33:09;;;;;;;13.98;9.85;;;;;;;16.25;67.81;101342.59;5095768;28;20032;-46
2023/06/12 02:35:38;;;;;;;15.23;9.98;;;;;;;16.23;68.23;101347.78;5095756;28;20024;-48
2023/06/12 02:38:04;;;;;;;15.40;9.38;;;;;;;16.30;68.77;101351.34;5095179;28;20089;-47
2023/06/12 02:40:29;;;;;;;15.63;10.43;;;;;;;16.17;69.69;101344.25;5095517;28;20028;-48
2023/06/12 02:42:54;;;;;;;14.65;10.00;;;;;;;16.11;70.01;101340.69;5095701;28;20038;-47
2023/06/12 02:45:22;;;;;;;14.30;9.77;;;;;;;15.96;70.83;101337.88;5094637;28;20039;-48
2023/06/12 02:47:47;;;;;;;11.45;10.25;;;;;;;15.99;69.78;101345.69;5095443;28;20484;-47
2023/06/12 02:50:12;;;;;;;13.13;10.13;;;;;;;15.90;70.11;101337.75;5095476;28;20077;-46
2023/06/12 02:52:40;;;;;;;12.73;9.93;;;;;;;15.89;70.23;101336.00;5094497;28;20032;-47
2023/06/12 02:55:06;;;;;;;13.88;10.80;;;;;;;15.83;70.55;101338.50;5095811;28;20099;-47
2023/06/12 02:57:32;;;;;;;14.95;11.32;;;;;;;15.82;70.95;101336.78;5095113;28;20028;-47
2023/06/12 02:59:57;;;;;;;15.07;10.75;;;;;;;15.71;71.24;101340.06;5094709;28;20541;-48
2023/06/12 03:02:22;;;;;;;15.20;11.15;;;;;;;15.72;71.03;101336.56;5094896;28;20024;-45
2023/06/12 03:04:47;;;;;;;16.05;11.68;;;;;;;15.65;71.47;101339.94;5095017;28;20264;-47
2023/06/12 03:07:15;;;;;;;15.93;12.50;;;;;;;15.59;71.43;101335.50;5094678;28;20081;-45
2023/06/12 03:09:40;;;;;;;14.98;11.85;;;;;;;15.55;71.93;101330.25;5095239;28;20074;-48
2023/06/12 03:12:06;;;;;;;15.75;11.77;;;;;;;15.45;72.26;101332.69;5094970;28;20017;-47
2023/06/12 03:14:33;;;;;;;15.45;11.93;;;;;;;15.40;72.68;101333.44;5093784;28;20376;-46
2023/06/12 03:16:59;;;;;;;15.50;12.55;;;;;;;15.41;72.38;101338.66;5094929;28;20073;-45
2023/06/12 03:19:24;;;;;;;14.35;12.10;;;;;;;15.40;73.05;101336.94;5094615;28;20450;-47
2023/06/12 03:21:49;;;;;;;15.52;12.57;;;;;;;15.41;73.39;101335.19;5094276;28;20040;-46
2023/06/12 03:24:15;;;;;;;17.58;11.63;;;;;;;15.33;73.63;101337.66;5094933;28;20047;-48
2023/06/12 03:26:41;;;;;;;17.20;12.10;;;;;;;15.29;74.03;101338.47;5093813;28;20028;-45
2023/06/12 03:29:07;;;;;;;15.75;11.82;;;;;;;15.29;74.38;101338.47;5094910;28;20402;-47
2023/06/12 03:31:33;;;;;;;15.52;11.95;;;;;;;15.27;74.60;101341.03;5094348;28;20525;-48
2023/06/12 03:33:58;;;;;;;16.30;12.45;;;;;;;15.23;75.45;101347.00;5094125;28;20533;-42
2023/06/12 03:36:33;;;;;;;12.68;11.38;;;;;;;15.24;75.24;101351.34;5094345;28;20089;-48
2023/06/12 03:38:59;;;;;;;15.23;12.27;;;;;;;15.30;75.65;101353.19;5094754;28;20028;-44
2023/06/12 03:41:26;;;;;;;15.10;11.48;;;;;;;15.24;75.27;101359.13;5093626;28;20064;-44
2023/06/12 03:43:51;;;;;;;19.38;12.80;;;;;;;15.37;73.82;101348.97;5094407;28;20059;-47
2023/06/12 03:46:16;;;;;;;17.50;12.13;;;;;;;15.29;75.82;101351.44;5094281;28;20051;-48
2023/06/12 03:48:42;;;;;;;16.52;12.00;;;;;;;15.31;76.16;101355.81;5093625;28;20107;-47
2023/06/12 03:51:07;;;;;;;16.00;11.88;;;;;;;15.26;76.43;101360.06;5094435;28;20024;-47
2023/06/12 03:53:32;;;;;;;15.48;11.52;;;;;;;15.28;77.55;101360.94;5093992;28;20031;-47
2023/06/12 03:55:58;;;;;;;16.92;11.55;;;;;;;15.31;77.06;101362.72;5093491;28;20024;-45
2023/06/12 03:58:24;;;;;;;16.25;11.93;;;;;;;15.24;77.57;101363.47;5093753;28;20552;-49
2023/06/12 04:00:49;;;;;;;16.90;12.65;;;;;;;15.25;77.96;101368.69;5094345;28;20035;-46
2023/06/12 04:03:18;;;;;;;21.20;13.50;;;;;;;15.23;78.77;101362.56;5093766;28;20383;-46
2023/06/12 04:05:45;;;;;;;20.55;12.65;;;;;;;15.22;80.63;101371.22;5094112;28;20035;-47
2023/06/12 04:08:10;;;;;;;17.23;12.57;;;;;;;15.12;80.96;101374.50;5093777;28;20024;-47
2023/06/12 04:10:35;;;;;;;27.20;13.45;;;;;;;15.07;80.86;101368.34;5092998;28;20051;-47
2023/06/12 04:13:00;;;;;;;18.15;13.48;;;;;;;15.06;81.31;101375.25;5093848;28;20035;-48
2023/06/12 04:15:28;;;;;;;19.85;13.35;;;;;;;15.00;82.94;101384.63;5093274;28;20020;-48
2023/06/12 04:17:53;;;;;;;21.15;13.55;;;;;;;15.01;83.16;101376.88;5093540;28;20095;-45
2023/06/12 04:20:19;;;;;;;18.00;13.88;;;;;;;15.02;82.90;101378.63;5093484;28;20541;-45
2023/06/12 04:22:47;;;;;;;18.52;13.50;;;;;;;15.05;82.78;101381.28;5093622;28;20028;-44
2023/06/12 04:25:13;;;;;;;21.77;15.40;;;;;;;15.09;80.29;101380.50;5092581;28;20463;-46
2023/06/12 04:27:40;;;;;;;19.40;15.13;;;;;;;15.22;80.46;101380.72;5093238;28;20027;-47
2023/06/12 04:30:06;;;;;;;20.20;15.50;;;;;;;15.26;80.41;101382.53;5093073;28;20024;-47
2023/06/12 04:32:32;;;;;;;27.17;15.45;;;;;;;15.22;80.94;101383.31;5093191;28;20479;-45
2023/06/12 04:34:57;;;;;;;20.35;15.32;;;;;;;15.28;82.02;101376.50;5093652;28;20058;-48
2023/06/12 04:37:23;;;;;;;19.67;14.93;;;;;;;15.35;82.97;101385.31;5092353;28;20052;-45
2023/06/12 04:39:50;;;;;;;19.83;15.90;;;;;;;15.46;82.79;101381.16;5093441;28;20040;-48
2023/06/12 04:42:16;;;;;;;26.10;16.60;;;;;;;15.48;82.49;101382.09;5093033;28;20054;-46
2023/06/12 04:44:42;;;;;;;19.50;15.38;;;;;;;15.55;82.19;101374.41;5092781;28;20059;-47
2023/06/12 04:47:10;;;;;;;20.80;15.55;;;;;;;15.66;80.77;101378.06;5093436;28;20380;-43
2023/06/12 04:49:37;;;;;;;22.88;16.08;;;;;;;15.69;83.31;101378.13;5093069;28;20499;-44
2023/06/12 04:52:03;;;;;;;23.10;14.95;;;;;;;15.82;82.81;101380.97;5092568;28;20425;-47
2023/06/12 04:54:35;;;;;;;22.08;15.65;;;;;;;15.95;80.06;101380.31;5092949;28;20102;-46
2023/06/12 04:57:07;;;;;;;20.77;15.02;;;;;;;16.07;77.38;101380.47;5092965;28;20024;-46
2023/06/12 04:59:37;;;;;;;19.33;14.65;;;;;;;16.20;79.06;101378.06;5092293;28;20036;-46
2023/06/12 05:02:03;;;;;;;19.42;14.20;;;;;;;16.32;76.97;101380.88;5093185;28;20028;-47
2023/06/12 05:04:28;;;;;;;20.23;14.52;;;;;;;16.49;76.49;101382.81;5092609;28;20026;-47
2023/06/12 05:06:54;;;;;;;18.25;14.57;;;;;;;16.58;74.92;101390.78;5092545;28;20028;-46
2023/06/12 05:09:19;;;;;;;18.52;14.65;;;;;;;16.65;75.51;101389.97;5092630;28;20380;-45
2023/06/12 05:11:45;;;;;;;18.77;14.13;;;;;;;16.79;74.66;101387.56;5092973;28;20388;-47
2023/06/12 05:14:10;;;;;;;19.02;13.88;;;;;;;16.92;74.57;101391.22;5092638;28;20024;-44
2023/06/12 05:16:35;;;;;;;19.15;13.45;;;;;;;16.98;73.57;101387.81;5092684;28;20024;-46
2023/06/12 05:19:01;;;;;;;22.30;14.07;;;;;;;17.08;71.86;101390.56;5092700;28;20035;-47
2023/06/12 05:21:26;;;;;;;19.38;13.73;;;;;;;17.17;72.43;101386.28;5091968;28;20086;-46
2023/06/12 05:23:52;;;;;;;17.52;13.80;;;;;;;17.29;71.92;101389.03;5092850;28;20491;-48
2023/06/12 05:26:17;;;;;;;20.63;14.57;;;;;;;17.43;69.89;101397.00;5091894;28;20127;-48
2023/06/12 05:28:43;;;;;;;16.50;13.38;;;;;;;17.55;69.14;101391.03;5093009;28;20477;-47
2023/06/12 05:31:08;;;;;;;20.60;13.60;;;;;;;17.64;68.42;101392.81;5092909;28;20024;-47
2023/06/12 05:33:33;;;;;;;22.63;13.50;;;;;;;17.74;70.75;101397.25;5091810;28;20028;-48
2023/06/12 05:35:59;;;;;;;20.13;13.25;;;;;;;17.82;71.40;101400.81;5093610;28;20019;-46
2023/06/12 05:38:25;;;;;;;18.10;13.50;;;;;;;17.92;70.38;101386.09;5096751;28;20023;-48
2023/06/12 05:40:51;;;;;;;20.90;11.98;;;;;;;18.06;68.29;101384.53;5096496;28;20043;-46
2023/06/12 05:43:16;;;;;;;22.27;12.93;;;;;;;18.16;66.98;101382.84;5096662;28;20455;-46
2023/06/12 05:45:41;;;;;;;19.17;12.63;;;;;;;18.24;64.98;101382.91;5096924;28;20028;-46
2023/06/12 05:48:06;;;;;;;17.70;12.48;;;;;;;18.36;66.88;101385.59;5095899;28;20115;-48
2023/06/12 05:50:32;;;;;;;18.98;12.45;;;;;;;18.47;65.29;101377.81;5096347;28;20031;-48
2023/06/12 05:52:57;;;;;;;18.95;12.40;;;;;;;18.59;65.71;101379.59;5096385;28;20099;-45
2023/06/12 05:55:22;;;;;;;18.60;11.40;;;;;;;18.68;63.21;101373.56;5095993;28;20024;-47
2023/06/12 05:57:48;;;;;;;21.23;11.05;;;;;;;18.79;61.97;101376.25;5096627;28;20405;-47
2023/06/12 06:00:14;;;;;;;17.20;11.05;;;;;;;18.90;62.75;101378.06;5096408;28;20020;-47
2023/06/12 06:02:39;;;;;;;19.90;12.02;;;;;;;19.02;60.42;101382.44;5095525;28;20032;-48
2023/06/12 06:05:09;;;;;;;16.48;11.18;;;;;;;19.18;60.85;101379.88;5096304;28;20085;-46
2023/06/12 06:07:35;;;;;;;17.98;10.98;;;;;;;19.30;61.11;101379.91;5095795;28;20441;-47
2023/06/12 06:10:00;;;;;;;18.33;10.75;;;;;;;19.41;60.99;101386.00;5095976;28;20043;-46
2023/06/12 06:12:26;;;;;;;14.88;10.18;;;;;;;19.53;61.22;101379.06;5096137;28;20376;-46
2023/06/12 06:14:51;;;;;;;18.58;11.27;;;;;;;19.65;59.70;101383.41;5095866;28;20421;-46
2023/06/12 06:17:17;;;;;;;16.75;10.65;;;;;;;19.75;59.28;101382.53;5095328;28;20024;-47
2023/06/12 06:19:42;;;;;;;15.98;11.15;;;;;;;19.83;56.63;101385.19;5096105;28;20024;-47
2023/06/12 06:22:08;;;;;;;16.63;11.88;;;;;;;19.93;59.57;101381.69;5095571;28;20112;-44
2023/06/12 06:24:33;;;;;;;18.05;11.48;;;;;;;19.98;55.47;101384.31;5095034;28;20024;-45
2023/06/12 06:26:58;;;;;;;17.48;12.02;;;;;;;20.17;57.53;101390.41;5096164;28;20028;-47
2023/06/12 06:29:23;;;;;;;19.77;12.32;;;;;;;20.21;55.72;101379.91;5095513;28;20024;-44
2023/06/12 06:31:49;;;;;;;14.63;11.70;;;;;;;20.35;57.40;101389.50;5095532;28;20540;-47
2023/06/12 06:34:14;;;;;;;20.38;11.68;;;;;;;20.47;57.50;101393.84;5096092;28;20020;-47
2023/06/12 06:36:39;;;;;;;16.02;11.90;;;;;;;20.53;54.86;101389.44;5094633;28;20032;-48
2023/06/12 06:39:05;;;;;;;15.48;10.88;;;;;;;20.62;54.27;101385.94;5096044;28;20020;-44
2023/06/12 06:41:30;;;;;;;17.00;11.60;;;;;;;20.74;53.44;101387.66;5095383;28;20425;-45
2023/06/12 06:43:55;;;;;;;19.70;11.68;;;;;;;20.87;53.91;101393.72;5095037;28;20437;-47
2023/06/12 06:46:20;;;;;;;18.35;10.98;;;;;;;21.00;54.10;101395.38;5095424;28;20421;-46
2023/06/12 06:48:46;;;;;;;19.75;10.65;;;;;;;21.10;51.26;101390.13;5094871;28;20032;-46
2023/06/12 06:51:11;;;;;;;17.17;10.82;;;;;;;21.24;51.94;101390.91;5094693;28;20035;-48
2023/06/12 06:53:36;;;;;;;16.70;11.25;;;;;;;21.40;52.77;101391.66;5095190;28;20531;-48
2023/06/12 06:56:02;;;;;;;20.42;11.20;;;;;;;21.49;50.60;101391.59;5095046;28;20032;-46
2023/06/12 06:58:27;;;;;;;14.20;10.95;;;;;;;21.59;50.36;101395.06;5094359;28;20026;-45
2023/06/12 07:00:52;;;;;;;17.40;10.77;;;;;;;21.74;50.99;101401.06;5095406;28;20052;-46
2023/06/12 07:03:18;;;;;;;18.58;9.90;;;;;;;21.84;49.92;101392.25;5094686;28;20034;-47
2023/06/12 07:05:43;;;;;;;18.85;9.70;;;;;;;21.93;48.98;101394.78;5094538;28;20035;-45
2023/06/12 07:08:08;;;;;;;16.58;9.50;;;;;;;21.98;48.16;101398.25;5095099;28;20120;-48
2023/06/12 07:10:34;;;;;;;14.48;9.45;;;;;;;22.06;49.86;101389.44;5094762;28;20020;-47
2023/06/12 07:12:59;;;;;;;12.05;9.35;;;;;;;22.19;48.15;101385.78;5094738;28;20051;-48
2023/06/12 07:15:25;;;;;;;16.92;9.23;;;;;;;22.28;48.40;101385.69;5094748;28;20039;-42
2023/06/12 07:17:50;;;;;;;15.35;9.80;;;;;;;22.35;48.14;101386.53;5094931;28;20047;-43
2023/06/12 07:20:16;;;;;;;13.15;9.25;;;;;;;22.45;48.87;101387.31;5094202;28;20102;-44
2023/06/12 07:22:44;;;;;;;18.55;9.50;;;;;;;22.50;48.92;101388.13;5094490;28;20052;-48
2023/06/12 07:25:10;;;;;;;11.82;8.65;;;;;;;22.61;49.45;101378.38;5094466;28;20468;-48
2023/06/12 07:27:35;;;;;;;15.90;9.38;;;;;;;22.67;47.29;101388.81;5094223;28;20523;-45
2023/06/12 07:30:00;;;;;;;13.00;8.77;;;;;;;22.82;48.71;101381.59;5094879;28;20096;-47
2023/06/12 07:32:26;;;;;;;12.93;9.07;;;;;;;22.88;47.07;101380.66;5094156;28;20170;-44
2023/06/12 07:34:51;;;;;;;17.33;8.68;;;;;;;22.96;47.93;101379.66;5094088;28;20031;-48
2023/06/12 07:37:20;;;;;;;15.57;8.70;;;;;;;23.13;46.15;101382.06;5094264;28;20036;-47
2023/06/12 07:39:46;;;;;;;15.23;8.90;;;;;;;23.29;46.84;101381.84;5094461;28;20078;-47
2023/06/12 07:42:11;;;;;;;13.98;8.48;;;;;;;23.37;45.64;101387.91;5094084;28;20024;-47
2023/06/12 07:44:37;;;;;;;11.43;8.05;;;;;;;23.47;44.88;101381.59;5094274;28;20529;-45
2023/06/12 07:47:03;;;;;;;16.75;8.30;;;;;;;23.57;44.72;101377.03;5093726;28;20028;-47
2023/06/12 07:49:28;;;;;;;15.57;8.68;;;;;;;23.71;45.08;101381.22;5094106;28;20031;-47
2023/06/12 07:51:53;;;;;;;13.00;8.73;;;;;;;23.76;44.03;101377.59;5094203;28;20028;-46
2023/06/12 07:54:19;;;;;;;13.07;8.30;;;;;;;23.85;43.51;101376.59;5093297;28;20446;-47
2023/06/12 07:56:44;;;;;;;12.25;7.95;;;;;;;23.91;44.61;101376.53;5094427;28;20472;-48
2023/06/12 07:59:10;;;;;;;13.30;8.50;;;;;;;23.92;42.70;101378.22;5093488;28;20028;-47
2023/06/12 08:01:37;;;;;;;13.17;8.03;;;;;;;24.02;43.43;101378.09;5093066;28;20095;-48
2023/06/12 08:04:05;;;;;;;12.48;8.13;;;;;;;24.12;42.02;101375.25;5094233;28;20024;-48
2023/06/12 08:06:34;;;;;;;13.90;8.13;;;;;;;24.27;42.47;101375.84;5093293;28;20062;-47
2023/06/12 08:09:00;;;;;;;13.93;7.93;;;;;;;24.46;43.60;101376.38;5093707;28;20095;-48
2023/06/12 08:11:25;;;;;;;15.68;7.43;;;;;;;24.65;43.71;101375.13;5093848;28;20023;-46
2023/06/12 08:13:51;;;;;;;10.45;7.57;;;;;;;24.78;43.55;101375.72;5093909;28;20103;-47
2023/06/12 08:16:16;;;;;;;11.73;8.65;;;;;;;24.89;42.03;101378.13;5093010;28;20048;-47
2023/06/12 08:18:42;;;;;;;11.82;7.53;;;;;;;25.06;41.11;101369.88;5094055;28;20028;-46
2023/06/12 08:21:24;;;;;;;12.13;7.55;;;;;;;25.10;39.99;101373.28;5069788;28;20399;-48
2023/06/12 08:23:50;;;;;;;12.27;7.70;;;;;;;25.26;39.64;101382.56;5069759;28;20033;-48
2023/06/12 08:26:16;;;;;;;11.07;7.30;;;;;;;25.27;38.56;101379.03;5069990;28;20027;-45
2023/06/12 08:28:41;;;;;;;11.38;7.50;;;;;;;25.44;39.30;101375.16;5069962;28;20024;-47
2023/06/12 08:31:06;;;;;;;13.13;7.57;;;;;;;25.57;40.06;101371.31;5069702;28;20566;-49
2023/06/12 08:33:32;;;;;;;12.57;8.15;;;;;;;25.70;40.81;101381.56;5069613;28;20384;-48
2023/06/12 08:36:01;;;;;;;12.85;7.47;;;;;;;25.85;39.29;101377.66;5069841;28;20056;-46
2023/06/12 08:38:27;;;;;;;13.70;8.40;;;;;;;25.93;39.31;101378.34;5068992;28;20635;-47
2023/06/12 08:40:58;;;;;;;13.27;8.10;;;;;;;26.02;40.18;101379.88;5069950;28;20127;-47
2023/06/12 08:43:23;;;;;;;11.88;7.85;;;;;;;26.02;38.93;101372.81;5068774;28;20385;-48
2023/06/12 08:45:51;;;;;;;12.07;7.85;;;;;;;26.08;37.89;101380.59;5069685;28;20476;-47
2023/06/12 08:48:18;;;;;;;13.68;7.63;;;;;;;26.08;37.72;101370.03;5069435;28;20032;-48
2023/06/12 08:50:44;;;;;;;;;;;;;;;26.31;39.61;101370.31;5069496;28;20464;-46
2023/06/12 08:53:10;;;;;;;14.33;7.20;;;;;;;26.51;37.99;101375.91;5069723;28;19966;-49
2023/06/12 08:55:39;;;;;;;12.55;7.65;;;;;;;26.53;36.60;101379.34;5069167;28;20024;-49
2023/06/12 08:58:09;;;;;;;15.57;7.53;;;;;;;26.66;37.13;101371.06;5069062;28;20025;-47
2023/06/12 09:00:34;;;;;;;10.45;7.32;;;;;;;26.78;36.80;101368.09;5069153;28;20059;-48
2023/06/12 09:03:00;;;;;;;12.68;7.20;;;;;;;26.94;35.70;101365.84;5069484;28;20016;-45
2023/06/12 09:05:33;;;;;;;11.10;7.10;;;;;;;27.10;36.92;101359.19;5068807;28;20358;-44
2023/06/12 09:08:05;;;;;;;17.35;7.25;;;;;;;27.22;36.57;101360.56;5069542;28;20151;-43
2023/06/12 09:10:32;;;;;;;14.60;7.00;;;;;;;27.18;34.83;101360.69;5068819;28;20024;-49
2023/06/12 09:12:58;;;;;;;12.68;7.35;;;;;;;27.31;35.22;101359.41;5068715;28;20482;-45
2023/06/12 09:15:24;;;;;;;13.03;7.00;;;;;;;27.37;34.19;101356.56;5068764;28;20492;-48
2023/06/12 09:17:51;;;;;;;11.18;6.97;;;;;;;27.56;34.80;101353.31;5069116;28;20013;-43
2023/06/12 09:20:29;;;;;;;14.30;7.03;;;;;;;27.65;34.47;101354.81;5068007;28;20110;-47
2023/06/12 09:23:00;;;;;;;11.55;7.35;;;;;;;27.69;34.02;101351.13;5069081;28;20021;-48
2023/06/12 09:25:37;;;;;;;13.00;7.00;;;;;;;27.80;34.85;101354.28;5067832;28;20029;-47
2023/06/12 09:28:03;;;;;;;16.17;7.25;;;;;;;27.84;33.08;101347.94;5069078;28;20044;-48
2023/06/12 09:30:31;;;;;;;11.00;7.40;;;;;;;28.01;32.98;101342.03;5068174;28;20055;-49
2023/06/12 09:32:59;;;;;;;14.35;7.40;;;;;;;28.13;33.69;101340.75;5054665;28;20272;-47
2023/06/12 09:35:24;;;;;;;17.45;6.90;;;;;;;28.23;33.37;101347.47;5055477;28;20025;-49
2023/06/12 09:37:50;;;;;;;12.13;7.55;;;;;;;28.26;33.39;101346.47;5055268;28;20096;-46
2023/06/12 09:40:15;;;;;;;10.25;7.30;;;;;;;28.42;33.31;101349.44;5054633;28;20045;-41
2023/06/12 09:42:42;;;;;;;14.43;6.90;;;;;;;28.46;32.15;101356.34;5055348;28;20029;-44
2023/06/12 09:45:17;;;;;;;11.48;7.10;;;;;;;28.42;32.07;101358.25;5055355;28;20051;-45
2023/06/12 09:47:46;;;;;;;10.45;6.88;;;;;;;28.21;32.28;101354.63;5054986;28;20033;-45
2023/06/12 09:50:13;;;;;;;12.90;7.25;;;;;;;28.06;31.54;101347.22;5055259;28;20474;-47
2023/06/12 09:52:43;;;;;;;9.82;6.95;;;;;;;28.05;32.03;101356.94;5054703;28;20021;-48
2023/06/12 09:55:11;;;;;;;11.63;6.80;;;;;;;28.32;32.66;101348.91;5054861;28;20021;-45
2023/06/12 09:57:38;;;;;;;11.98;6.95;;;;;;;28.68;32.77;101352.94;5055069;28;20055;-48
2023/06/12 10:00:11;;;;;;;14.17;7.50;;;;;;;28.75;31.81;101354.41;5054982;28;20056;-47
2023/06/12 10:02:41;;;;;;;8.73;6.97;;;;;;;29.76;32.35;101351.22;5054389;28;20279;-45
2023/06/12 10:05:16;;;;;;;10.98;7.13;;;;;;;29.58;30.22;101355.53;5055059;28;20082;-44
2023/06/12 10:07:47;;;;;;;13.63;7.60;;;;;;;29.69;29.46;101357.72;5054214;28;20368;-47
2023/06/12 10:10:13;;;;;;;10.88;6.95;;;;;;;30.02;29.78;101357.19;5054870;28;20413;-48
2023/06/12 10:12:40;;;;;;;12.07;6.77;;;;;;;30.44;29.95;101358.84;5054548;28;20025;-47
2023/06/12 10:15:07;;;;;;;14.65;7.30;;;;;;;30.62;27.95;101351.84;5054526;28;20032;-49
2023/06/12 10:17:34;;;;;;;12.43;6.82;;;;;;;31.41;27.91;101352.53;5054465;28;20516;-47
2023/06/12 10:20:02;;;;;;;12.07;6.85;;;;;;;31.44;27.27;101353.25;5054486;28;20052;-44
2023/06/12 10:22:27;;;;;;;10.02;6.50;;;;;;;32.73;25.20;101344.75;5054083;28;20021;-46
2023/06/12 10:24:58;;;;;;;12.85;6.90;;;;;;;33.73;23.99;101343.44;5054870;28;20035;-49
2023/06/12 10:27:23;;;;;;;10.93;6.88;;;;;;;34.47;23.07;101346.06;5054186;28;20025;-46
2023/06/12 10:29:56;;;;;;;12.87;7.17;;;;;;;34.60;23.37;101351.50;5054082;28;20435;-47
2023/06/12 10:32:22;;;;;;;16.48;7.35;;;;;;;34.82;22.59;101345.59;5054184;28;20048;-46
2023/06/12 10:34:50;;;;;;;13.07;7.27;;;;;;;35.48;22.57;101336.84;5054526;28;20546;-46
2023/06/12 10:37:28;;;;;;;10.60;6.32;;;;;;;36.31;21.88;101339.13;5053744;28;20021;-44
2023/06/12 10:40:14;;;;;;;9.73;7.22;;;;;;;36.74;22.20;101343.19;5054533;28;20021;-46
2023/06/12 10:42:51;;;;;;;12.73;6.85;;;;;;;36.28;21.53;101344.69;5053153;28;20048;-47
2023/06/12 10:45:28;;;;;;;10.30;6.60;;;;;;;36.68;22.30;101338.28;5054206;28;20037;-45
2023/06/12 10:48:05;;;;;;;13.02;7.43;;;;;;;37.44;20.91;101335.38;5054084;28;20107;-47
2023/06/12 10:50:37;;;;;;;12.88;6.25;;;;;;;37.30;20.32;101333.69;5053407;28;20025;-46
2023/06/12 10:53:06;;;;;;;12.27;6.80;;;;;;;37.63;20.74;101327.56;5054136;28;20028;-47
2023/06/12 10:55:33;;;;;;;11.60;6.32;;;;;;;37.96;19.62;101335.81;5053708;28;20024;-47
2023/06/12 10:58:07;;;;;;;10.60;6.88;;;;;;;37.41;20.03;101325.69;5053499;28;20481;-48
2023/06/12 11:00:38;;;;;;;10.85;7.00;;;;;;;37.36;19.25;101325.19;5053517;28;20385;-46
2023/06/12 11:03:14;;;;;;;11.27;6.50;;;;;;;37.41;20.22;101325.69;5053770;28;20021;-47
2023/06/12 11:05:48;;;;;;;8.25;6.78;;;;;;;38.03;19.76;101327.13;5053025;28;20533;-46
2023/06/12 11:08:14;;;;;;;11.20;6.38;;;;;;;38.62;18.71;101319.75;5054075;28;20024;-45
2023/06/12 11:10:40;;;;;;;11.70;6.57;;;;;;;38.63;18.51;101318.78;5053373;28;20023;-47
2023/06/12 11:13:05;;;;;;;15.23;7.27;;;;;;;38.49;18.49;101316.34;5053326;28;20037;-44
2023/06/12 11:15:45;;;;;;;11.77;7.03;;;;;;;38.41;19.18;101316.97;5053490;28;20067;-47